Time;durP1;ratioP1;P1;durP2;ratioP2;P2;SDS_P1;SDS_P2;PMS_P1;PMS_P2;Temp;Humidity;BMP_temperature;BMP_pressure;BME280_temperature;BME280_humidity;BME280_pressure;Samples;Min_cycle;Max_cycle;Signal;HPM_P1;HPM_P2
2023/12/04 00:00:07;;;;;;;22.77;8.70;;;;;;;-1.79;100.00;99975.66;12199940;19;20022;-85
2023/12/04 00:04:15;;;;;;;22.45;9.13;;;;;;;-1.86;100.00;99967.38;12165852;19;20015;-85
2023/12/04 00:08:17;;;;;;;30.60;12.57;;;;;;;-1.98;100.00;99966.00;12193256;19;20002;-84
2023/12/04 00:12:22;;;;;;;26.38;10.25;;;;;;;-2.09;100.00;99969.84;12196191;19;20052;-85
2023/12/04 00:16:24;;;;;;;22.08;8.95;;;;;;;-2.13;100.00;99971.19;12171669;19;20054;-85
2023/12/04 00:20:26;;;;;;;23.47;9.77;;;;;;;-2.18;100.00;99963.56;12188480;19;20336;-83
2023/12/04 00:24:28;;;;;;;28.58;10.38;;;;;;;-2.32;100.00;99956.09;12169885;19;20353;-83
2023/12/04 00:28:31;;;;;;;19.88;8.02;;;;;;;-2.40;100.00;99948.84;12188597;19;20078;-84
2023/12/04 00:32:33;;;;;;;16.87;8.30;;;;;;;-2.43;100.00;99942.91;12188450;19;20055;-85
2023/12/04 00:36:36;;;;;;;17.83;7.53;;;;;;;-2.48;100.00;99935.31;12168829;19;21879;-84
2023/12/04 00:40:38;;;;;;;16.83;6.05;;;;;;;-2.53;100.00;99926.84;12192112;19;20034;-83
2023/12/04 00:44:42;;;;;;;16.65;7.10;;;;;;;-2.56;100.00;99921.75;12189801;19;20006;-85
2023/12/04 00:48:46;;;;;;;16.87;7.03;;;;;;;-2.57;100.00;99922.78;12168804;19;20010;-85
2023/12/04 00:52:49;;;;;;;16.65;7.32;;;;;;;-2.56;100.00;99914.53;12190287;19;21143;-85
2023/12/04 00:56:52;;;;;;;17.23;6.80;;;;;;;-2.56;100.00;99916.38;12191563;19;20010;-85
2023/12/04 01:00:56;;;;;;;16.77;7.32;;;;;;;-2.55;100.00;99912.69;12169600;19;20003;-85
2023/12/04 01:04:59;;;;;;;17.63;7.80;;;;;;;-2.53;100.00;99900.72;12178488;19;20010;-84
2023/12/04 01:09:02;;;;;;;14.40;7.32;;;;;;;-2.53;100.00;99900.72;12186648;19;20007;-84
2023/12/04 01:13:04;;;;;;;19.63;7.60;;;;;;;-2.54;100.00;99893.63;12167801;19;20023;-84
2023/12/04 01:17:08;;;;;;;15.57;8.00;;;;;;;-2.54;100.00;99887.38;12188914;19;20002;-85
2023/12/04 01:21:11;;;;;;;19.02;8.20;;;;;;;-2.52;100.00;99879.97;12186513;19;20002;-85
2023/12/04 01:25:13;;;;;;;16.90;7.38;;;;;;;-2.50;100.00;99879.81;12216586;19;20011;-82
2023/12/04 01:29:15;;;;;;;17.17;7.10;;;;;;;-2.46;100.00;99873.09;12259095;19;20011;-83
2023/12/04 01:33:18;;;;;;;16.27;7.10;;;;;;;-2.44;100.00;99866.53;12251971;19;20267;-83
2023/12/04 01:37:19;;;;;;;17.97;8.37;;;;;;;-2.45;100.00;99870.22;12202313;19;20025;-85
2023/12/04 01:41:22;;;;;;;18.95;7.15;;;;;;;-2.45;100.00;99864.81;12187316;19;20064;-84
2023/12/04 01:45:23;;;;;;;19.20;7.87;;;;;;;-2.44;100.00;99868.34;12187620;19;20025;-83
2023/12/04 01:49:26;;;;;;;18.63;7.55;;;;;;;-2.43;100.00;99864.66;12168647;19;20007;-84
2023/12/04 01:53:28;;;;;;;;;;;;;;;-2.44;100.00;99866.53;12183786;19;20014;-83
2023/12/04 01:57:34;;;;;;;16.60;7.10;;;;;;;-2.43;100.00;99852.00;12164773;19;19915;-83
2023/12/04 02:01:37;;;;;;;15.10;6.78;;;;;;;-2.44;100.00;99861.13;12189019;19;20038;-84
2023/12/04 02:05:43;;;;;;;16.65;7.03;;;;;;;-2.48;100.00;99859.75;12187743;19;20377;-83
2023/12/04 02:09:45;;;;;;;14.68;6.75;;;;;;;-2.46;100.00;99855.03;12165626;19;20028;-84
2023/12/04 02:13:51;;;;;;;17.85;7.18;;;;;;;-2.48;100.00;99853.50;12184688;19;20488;-84
2023/12/04 02:17:54;;;;;;;15.70;6.85;;;;;;;-2.50;100.00;99853.66;12225474;19;20045;-82
2023/12/04 02:21:57;;;;;;;15.27;6.53;;;;;;;-2.53;100.00;99852.16;12172936;19;20011;-85
2023/12/04 02:26:03;;;;;;;16.80;7.03;;;;;;;-2.49;100.00;99847.28;12186163;19;20011;-84
2023/12/04 02:30:07;;;;;;;23.17;7.93;;;;;;;-2.43;100.00;99840.38;12194397;19;20010;-83
2023/12/04 02:34:13;;;;;;;22.10;7.85;;;;;;;-2.36;100.00;99831.44;12175668;19;20046;-85
2023/12/04 02:38:16;;;;;;;15.75;6.63;;;;;;;-2.32;100.00;99832.81;12193239;19;20344;-85
2023/12/04 02:42:19;;;;;;;15.80;6.18;;;;;;;-2.26;100.00;99822.34;12196501;19;20013;-86
2023/12/04 02:46:21;;;;;;;16.52;6.95;;;;;;;-2.27;100.00;99809.88;12179028;19;20022;-86
2023/12/04 02:50:24;;;;;;;14.57;6.50;;;;;;;-2.29;100.00;99807.34;12193322;19;20066;-84
2023/12/04 02:54:26;;;;;;;17.58;7.03;;;;;;;-2.31;100.00;99802.09;12193672;19;20023;-84
2023/12/04 02:58:30;;;;;;;14.30;5.90;;;;;;;-2.32;100.00;99802.25;12174544;19;20010;-85
2023/12/04 03:02:32;;;;;;;16.30;6.40;;;;;;;-2.34;100.00;99788.09;12194267;19;20448;-85
2023/12/04 03:06:34;;;;;;;12.32;6.05;;;;;;;-2.34;100.00;99785.41;12175832;19;20499;-84
2023/12/04 03:10:39;;;;;;;13.95;6.15;;;;;;;-2.35;100.00;99779.16;12204743;19;20018;-84
2023/12/04 03:14:43;;;;;;;13.43;6.57;;;;;;;-2.33;100.00;99768.19;12237472;19;20022;-84
2023/12/04 03:18:48;;;;;;;17.27;6.20;;;;;;;-2.34;100.00;99761.13;12213634;19;20107;-83
2023/12/04 03:22:51;;;;;;;15.15;6.68;;;;;;;-2.37;100.00;99756.88;12206576;19;20007;-83
2023/12/04 03:26:54;;;;;;;16.30;7.10;;;;;;;-2.39;100.00;99756.22;12200214;19;20014;-84
2023/12/04 03:30:56;;;;;;;12.10;6.43;;;;;;;-2.37;100.00;99735.31;12165358;19;20021;-84
2023/12/04 03:34:58;;;;;;;11.87;5.83;;;;;;;-2.37;100.00;99732.59;12208105;19;20006;-86
2023/12/04 03:39:00;;;;;;;14.67;6.73;;;;;;;-2.33;100.00;99730.41;12204198;19;20260;-86
2023/12/04 03:43:03;;;;;;;15.52;5.63;;;;;;;-2.28;100.00;99721.81;12173172;19;20529;-83
2023/12/04 03:47:05;;;;;;;16.80;7.25;;;;;;;-2.26;100.00;99712.53;12196423;19;20013;-84
2023/12/04 03:51:09;;;;;;;13.20;5.85;;;;;;;-2.27;100.00;99712.69;12190058;19;20003;-84
2023/12/04 03:55:11;;;;;;;15.83;5.77;;;;;;;-2.30;100.00;99698.50;12174027;19;20031;-83
2023/12/04 03:59:13;;;;;;;14.02;6.45;;;;;;;-2.33;100.00;99701.56;12205146;19;20014;-85
2023/12/04 04:03:15;;;;;;;15.15;6.88;;;;;;;-2.32;100.00;99702.41;12194488;19;20694;-84
2023/12/04 04:07:17;;;;;;;13.73;6.25;;;;;;;-2.32;100.00;99695.16;12173049;19;20015;-85
2023/12/04 04:11:20;;;;;;;14.48;5.72;;;;;;;-2.27;100.00;99688.41;12193265;19;20026;-84
2023/12/04 04:15:23;;;;;;;14.07;6.32;;;;;;;-2.22;100.00;99686.88;12193472;19;20035;-85
2023/12/04 04:19:26;;;;;;;14.98;6.03;;;;;;;-2.17;100.00;99689.94;12168521;19;20370;-85
2023/12/04 04:23:29;;;;;;;14.65;6.38;;;;;;;-2.13;100.00;99695.81;12189933;19;20026;-83
2023/12/04 04:27:31;;;;;;;11.63;5.82;;;;;;;-2.05;100.00;99698.50;12171851;19;20410;-83
2023/12/04 04:31:36;;;;;;;10.80;5.65;;;;;;;-2.03;100.00;99690.22;12196518;19;20382;-85
2023/12/04 04:35:42;;;;;;;12.50;5.78;;;;;;;-2.03;100.00;99687.53;12200450;19;20002;-85
2023/12/04 04:39:44;;;;;;;17.30;6.57;;;;;;;-2.01;100.00;99682.81;12225260;19;20043;-85
2023/12/04 04:43:46;;;;;;;14.00;5.53;;;;;;;-1.95;100.00;99688.34;12199334;19;20007;-83
2023/12/04 04:47:48;;;;;;;12.95;6.25;;;;;;;-1.91;100.00;99678.88;12195164;19;20010;-85
2023/12/04 04:51:58;;;;;;;18.40;6.28;;;;;;;-1.86;100.00;99681.91;12170161;19;20038;-85
2023/12/04 04:56:00;;;;;;;14.07;6.10;;;;;;;-1.83;100.00;99675.31;12216142;19;20015;-84
2023/12/04 05:00:03;;;;;;;14.35;6.22;;;;;;;-1.81;100.00;99664.34;12211767;19;20002;-85
2023/12/04 05:04:06;;;;;;;14.30;5.45;;;;;;;-1.81;100.00;99656.22;12183837;19;20017;-85
2023/12/04 05:08:08;;;;;;;15.30;6.20;;;;;;;-1.81;100.00;99667.03;12209063;19;20003;-85
2023/12/04 05:12:10;;;;;;;14.95;6.45;;;;;;;-1.85;100.00;99661.97;12205597;19;20007;-84
2023/12/04 05:16:13;;;;;;;10.23;4.93;;;;;;;-1.83;99.74;99662.66;12187446;19;20036;-85
2023/12/04 05:20:15;;;;;;;12.80;5.28;;;;;;;-1.78;99.36;99655.91;12207787;19;20007;-85
2023/12/04 05:24:17;;;;;;;12.20;5.47;;;;;;;-1.84;99.34;99655.59;12211155;19;20074;-85
2023/12/04 05:28:19;;;;;;;17.35;6.60;;;;;;;-1.88;100.00;99656.94;12191595;19;20019;-85
2023/12/04 05:32:21;;;;;;;15.18;6.32;;;;;;;-1.92;100.00;99661.00;12210282;19;20014;-85
2023/12/04 05:36:27;;;;;;;10.38;5.13;;;;;;;-1.95;100.00;99647.00;12202548;19;20018;-85
2023/12/04 05:40:29;;;;;;;14.15;5.60;;;;;;;-2.03;100.00;99647.84;12209312;19;20015;-82
2023/12/04 05:44:31;;;;;;;16.37;6.87;;;;;;;-2.07;100.00;99639.28;12202324;19;20031;-81
2023/12/04 05:48:34;;;;;;;14.68;5.90;;;;;;;-2.08;100.00;99631.34;12186881;19;20010;-84
2023/12/04 05:52:36;;;;;;;13.07;5.83;;;;;;;-2.15;100.00;99609.59;12206674;19;20010;-83
2023/12/04 05:56:39;;;;;;;18.10;6.30;;;;;;;-2.16;100.00;99609.78;12207855;19;20011;-83
2023/12/04 06:00:41;;;;;;;15.07;6.17;;;;;;;-2.12;100.00;99605.69;12186565;19;20006;-85
2023/12/04 06:04:43;;;;;;;13.13;5.63;;;;;;;-2.13;100.00;99610.25;12204773;19;20014;-84
2023/12/04 06:08:45;;;;;;;14.27;5.83;;;;;;;-2.12;100.00;99611.09;12213622;19;20082;-83
2023/12/04 06:12:48;;;;;;;15.18;6.28;;;;;;;-2.11;100.00;99623.59;12190580;19;20000;-84
2023/12/04 06:16:56;;;;;;;20.58;7.18;;;;;;;-2.21;100.00;99633.72;12213394;19;20378;-85
2023/12/04 06:20:59;;;;;;;17.83;8.15;;;;;;;-2.22;100.00;99640.16;12207817;19;21304;-84
2023/12/04 06:25:01;;;;;;;19.42;6.43;;;;;;;-2.19;100.00;99637.13;12182208;19;20002;-84
2023/12/04 06:29:05;;;;;;;18.23;8.25;;;;;;;-2.14;100.00;99634.72;12208770;19;19998;-84
2023/12/04 06:33:08;;;;;;;18.20;7.57;;;;;;;-2.12;100.00;99630.00;12220363;19;20007;-85
2023/12/04 06:37:11;;;;;;;19.83;7.88;;;;;;;-2.12;100.00;99608.41;12188173;19;20087;-84
2023/12/04 06:41:14;;;;;;;15.27;6.43;;;;;;;-2.04;100.00;99611.09;12207916;19;20032;-83
2023/12/04 06:45:17;;;;;;;12.98;6.05;;;;;;;-2.04;100.00;99615.66;12210901;19;20038;-86
2023/12/04 06:49:21;;;;;;;12.60;5.75;;;;;;;-1.97;100.00;99611.22;12188895;19;20081;-84
2023/12/04 06:53:23;;;;;;;14.02;6.03;;;;;;;-1.93;100.00;99585.56;12207366;19;20010;-83
2023/12/04 06:57:27;;;;;;;18.35;5.85;;;;;;;-1.91;100.00;99578.97;12206602;19;20080;-83
2023/12/04 07:01:30;;;;;;;13.77;5.53;;;;;;;-1.90;100.00;99556.34;12207873;19;20018;-83
2023/12/04 07:05:32;;;;;;;14.87;6.40;;;;;;;-1.79;100.00;99548.88;12208921;19;20022;-85
2023/12/04 07:09:36;;;;;;;13.13;5.55;;;;;;;-1.75;100.00;99536.72;12185360;19;20011;-84
2023/12/04 07:13:41;;;;;;;14.32;5.72;;;;;;;-1.70;99.32;99545.94;12206974;19;20087;-84
2023/12/04 07:17:44;;;;;;;15.85;5.57;;;;;;;-1.53;99.33;99553.97;12214817;19;20024;-83
2023/12/04 07:21:48;;;;;;;12.53;5.63;;;;;;;-1.42;98.37;99553.56;12197177;19;20031;-83
2023/12/04 07:25:51;;;;;;;12.43;5.53;;;;;;;-1.30;98.22;99543.19;12215887;19;20007;-86
2023/12/04 07:29:54;;;;;;;13.07;5.65;;;;;;;-1.21;98.62;99532.13;12213928;19;20049;-86
2023/12/04 07:33:56;;;;;;;15.87;6.47;;;;;;;-1.09;98.38;99521.72;12187208;19;20015;-85
2023/12/04 07:37:59;;;;;;;68.97;27.60;;;;;;;-1.05;97.02;99512.19;12216169;19;20007;-84
2023/12/04 07:42:01;;;;;;;21.50;9.43;;;;;;;-1.00;95.57;99506.25;12245844;19;20570;-85
2023/12/04 07:46:13;;;;;;;;;;;;;;;-0.93;93.19;99515.31;12206637;19;20019;-87
2023/12/04 07:50:16;;;;;;;11.05;4.68;;;;;;;-0.79;93.09;99508.25;12263774;19;19918;-85
2023/12/04 07:54:26;;;;;;;16.00;6.53;;;;;;;-0.72;91.60;99514.59;12265482;19;20046;-85
2023/12/04 07:58:31;;;;;;;13.20;5.93;;;;;;;-0.63;91.17;99504.53;12223105;19;20014;-85
2023/12/04 08:02:34;;;;;;;11.60;5.47;;;;;;;-0.51;91.33;99501.19;12248785;19;20027;-85
2023/12/04 08:06:37;;;;;;;12.23;5.63;;;;;;;-0.43;91.03;99488.59;12242433;19;20014;-86
2023/12/04 08:10:40;;;;;;;9.20;3.97;;;;;;;-0.42;89.08;99492.97;12238035;19;20018;-86
2023/12/04 08:14:41;;;;;;;11.90;4.90;;;;;;;-0.32;88.87;99491.69;12216407;19;20019;-87
2023/12/04 08:18:45;;;;;;;13.40;5.70;;;;;;;-0.22;87.86;99499.50;12194432;19;20011;-86
2023/12/04 08:22:50;;;;;;;10.30;5.00;;;;;;;-0.11;87.84;99496.34;12216471;19;20011;-86
2023/12/04 08:26:53;;;;;;;12.05;5.10;;;;;;;0.00;86.88;99500.44;12214542;19;20123;-84
2023/12/04 08:30:56;;;;;;;13.27;5.75;;;;;;;0.12;85.60;99482.66;12193225;19;20111;-85
2023/12/04 08:34:58;;;;;;;14.30;6.67;;;;;;;0.06;85.78;99469.88;12207283;19;20082;-85
2023/12/04 08:39:03;;;;;;;15.15;7.28;;;;;;;-0.06;86.47;99452.41;12209947;19;20492;-85
2023/12/04 08:43:09;;;;;;;15.93;6.53;;;;;;;-0.05;86.57;99459.53;12191227;19;20505;-85
2023/12/04 08:47:13;;;;;;;17.58;6.00;;;;;;;-0.08;87.45;99458.03;12206093;19;20010;-84
2023/12/04 08:51:17;;;;;;;13.25;6.00;;;;;;;-0.09;87.45;99459.09;12212075;19;20353;-84
2023/12/04 08:55:19;;;;;;;;;;;;;;;-0.01;87.94;99471.66;12193393;19;20405;-85
2023/12/04 08:59:22;;;;;;;12.48;6.18;;;;;;;0.11;87.70;99448.47;12217740;19;19910;-85
2023/12/04 09:03:24;;;;;;;10.77;4.20;;;;;;;0.30;87.43;99457.84;12214179;19;20568;-86
2023/12/04 09:07:36;;;;;;;14.65;7.40;;;;;;;0.49;87.51;99442.81;12196462;19;20270;-85
2023/12/04 09:11:42;;;;;;;14.05;5.60;;;;;;;0.55;86.68;99450.19;12253416;19;20002;-85
2023/12/04 09:15:44;;;;;;;17.48;7.28;;;;;;;0.61;86.55;99451.28;12238558;19;20014;-84
2023/12/04 09:19:51;;;;;;;17.20;6.88;;;;;;;0.64;86.20;99443.59;12242297;19;20047;-86
2023/12/04 09:23:53;;;;;;;15.10;6.53;;;;;;;0.71;86.63;99450.94;12229293;19;20030;-84
2023/12/04 09:27:54;;;;;;;12.97;5.93;;;;;;;0.69;85.74;99459.28;12235309;19;20015;-84
2023/12/04 09:31:57;;;;;;;11.05;6.28;;;;;;;0.62;85.49;99471.91;12259041;19;20014;-84
2023/12/04 09:36:00;;;;;;;14.88;6.50;;;;;;;0.51;85.80;99473.28;12256018;19;20022;-85
2023/12/04 09:40:02;;;;;;;17.27;7.50;;;;;;;0.43;86.77;99468.00;12217502;19;20019;-84
2023/12/04 09:44:07;;;;;;;15.60;6.50;;;;;;;0.51;87.32;99458.91;12221745;19;20018;-86
2023/12/04 09:48:11;;;;;;;19.85;8.50;;;;;;;0.53;87.52;99440.56;12220636;19;20050;-84
2023/12/04 09:52:14;;;;;;;21.83;8.70;;;;;;;0.58;87.61;99447.06;12203429;19;20067;-86
2023/12/04 09:56:21;;;;;;;17.02;7.55;;;;;;;0.54;86.42;99453.94;12241124;19;20014;-83
2023/12/04 10:00:24;;;;;;;15.23;7.45;;;;;;;0.48;87.30;99453.84;12253446;19;20010;-85
2023/12/04 10:04:27;;;;;;;17.40;8.23;;;;;;;0.42;86.94;99447.34;12193631;19;20003;-84
2023/12/04 10:08:30;;;;;;;20.67;8.00;;;;;;;0.49;88.47;99455.53;12218582;19;20010;-84
2023/12/04 10:12:35;;;;;;;;;;;;;;;0.56;87.57;99457.25;12194475;19;20057;-84
2023/12/04 10:16:39;;;;;;;20.40;8.05;;;;;;;0.62;88.05;99445.63;12207026;19;19919;-82
2023/12/04 10:20:52;;;;;;;22.55;9.63;;;;;;;0.78;87.80;99444.56;12218708;19;20014;-85
2023/12/04 10:24:55;;;;;;;17.65;8.75;;;;;;;0.89;87.54;99446.75;12202230;19;20508;-85
2023/12/04 10:29:04;;;;;;;17.25;7.38;;;;;;;1.13;87.42;99434.59;12217281;19;20444;-85
2023/12/04 10:33:08;;;;;;;17.05;7.85;;;;;;;1.27;84.18;99448.25;12212337;19;20014;-85
2023/12/04 10:37:15;;;;;;;17.13;8.38;;;;;;;1.33;84.04;99439.31;12186017;19;20472;-87
2023/12/04 10:41:17;;;;;;;17.60;8.05;;;;;;;1.39;82.78;99424.09;12209226;19;20018;-86
2023/12/04 10:45:22;;;;;;;15.13;7.25;;;;;;;1.31;81.73;99422.41;12209073;19;20003;-85
2023/12/04 10:49:31;;;;;;;13.15;7.70;;;;;;;1.31;81.29;99435.97;12209669;19;20003;-87
2023/12/04 10:53:33;;;;;;;18.13;8.38;;;;;;;1.25;79.96;99436.75;12228856;19;20175;-86
2023/12/04 10:57:41;;;;;;;15.30;7.97;;;;;;;1.28;80.75;99434.50;12198254;19;20472;-87
2023/12/04 11:01:50;;;;;;;16.10;8.38;;;;;;;1.16;80.96;99427.94;12241104;19;20019;-86
2023/12/04 11:05:59;;;;;;;18.58;7.75;;;;;;;1.06;82.32;99422.00;12256486;19;20018;-88
2023/12/04 11:10:08;;;;;;;19.17;8.25;;;;;;;1.02;82.84;99402.59;12203817;19;20465;-87
2023/12/04 11:14:15;;;;;;;20.40;7.82;;;;;;;1.08;82.37;99395.53;12222162;19;20042;-88
2023/12/04 11:18:22;;;;;;;18.33;8.32;;;;;;;1.09;82.15;99380.91;12222066;19;20003;-87
2023/12/04 11:22:25;;;;;;;20.90;9.10;;;;;;;1.09;82.02;99375.47;12199125;19;20396;-87
2023/12/04 11:26:29;;;;;;;20.15;9.50;;;;;;;1.13;82.59;99347.75;12217611;19;20010;-87
2023/12/04 11:30:32;;;;;;;17.52;7.88;;;;;;;1.14;83.66;99351.31;12196580;19;20018;-86
2023/12/04 11:34:36;;;;;;;16.02;8.15;;;;;;;1.14;84.53;99337.75;12211772;19;20014;-85
2023/12/04 11:38:46;;;;;;;21.85;10.73;;;;;;;1.13;85.84;99317.03;12208842;19;20026;-84
2023/12/04 11:42:52;;;;;;;21.13;8.13;;;;;;;1.05;87.26;99317.25;12193371;19;20030;-85
2023/12/04 11:46:56;;;;;;;15.27;7.70;;;;;;;0.97;89.43;99317.41;12216371;19;20093;-85
2023/12/04 11:51:00;;;;;;;15.90;7.78;;;;;;;0.92;91.09;99299.00;12207810;19;20018;-84
2023/12/04 11:55:05;;;;;;;20.02;8.05;;;;;;;0.93;92.13;99278.16;12191037;19;20553;-85
2023/12/04 11:59:09;;;;;;;13.20;5.95;;;;;;;0.89;93.81;99277.69;12210454;19;20015;-84
2023/12/04 12:03:14;;;;;;;20.30;7.57;;;;;;;0.84;95.29;99253.91;12207745;19;20031;-84
2023/12/04 12:07:24;;;;;;;16.65;6.78;;;;;;;0.85;95.13;99244.72;12192664;19;20014;-81
2023/12/04 12:11:27;;;;;;;13.70;6.43;;;;;;;0.92;94.57;99233.88;12216404;19;20097;-82
2023/12/04 12:15:29;;;;;;;14.40;6.45;;;;;;;1.01;95.93;99231.84;12192985;19;20031;-83
2023/12/04 12:19:31;;;;;;;14.23;6.80;;;;;;;1.03;95.87;99222.47;12197754;19;20007;-84
2023/12/04 12:23:34;;;;;;;14.50;6.90;;;;;;;1.21;96.31;99216.47;12207986;19;20010;-81
2023/12/04 12:27:39;;;;;;;16.45;6.95;;;;;;;1.37;96.29;99201.72;12172474;19;20327;-82
2023/12/04 12:31:43;;;;;;;12.63;6.97;;;;;;;1.44;96.26;99202.56;12180749;19;20155;-82
2023/12/04 12:35:44;;;;;;;15.90;6.80;;;;;;;1.39;95.81;99187.91;12179695;19;20685;-84
2023/12/04 12:40:04;;;;;;;12.00;6.15;;;;;;;1.33;96.32;99173.28;12157672;19;20019;-81
2023/12/04 12:44:06;;;;;;;14.65;7.30;;;;;;;1.39;98.12;99158.06;12178718;19;20014;-84
2023/12/04 12:48:12;;;;;;;12.57;6.72;;;;;;;1.54;97.99;99139.69;12178826;19;20600;-82
2023/12/04 12:52:15;;;;;;;17.10;5.97;;;;;;;1.68;97.95;99126.97;12148316;19;20002;-81
2023/12/04 12:56:21;;;;;;;12.93;6.50;;;;;;;1.80;97.74;99111.69;12178445;19;20018;-80
2023/12/04 13:00:24;;;;;;;14.77;6.25;;;;;;;1.89;99.48;99096.03;12178433;19;20002;-83
2023/12/04 13:04:47;;;;;;;12.80;5.50;;;;;;;1.92;99.44;99087.44;12153818;19;20010;-80
2023/12/04 13:08:49;;;;;;;8.18;4.45;;;;;;;1.90;100.00;99084.09;12178657;19;20014;-79
2023/12/04 13:12:56;;;;;;;10.98;4.78;;;;;;;1.90;100.00;99078.66;12154760;19;20021;-82
2023/12/04 13:17:02;;;;;;;12.77;5.55;;;;;;;1.92;100.00;99074.69;12179155;19;20006;-83
2023/12/04 13:21:10;;;;;;;12.23;5.70;;;;;;;1.94;100.00;99064.47;12175671;19;20035;-82
2023/12/04 13:25:13;;;;;;;9.10;4.55;;;;;;;1.98;100.00;99057.53;12154606;19;20006;-79
2023/12/04 13:29:17;;;;;;;11.32;4.85;;;;;;;1.99;100.00;99056.50;12180922;19;20465;-81
2023/12/04 13:33:19;;;;;;;8.35;4.72;;;;;;;2.05;100.00;99050.22;12189867;19;20027;-83
2023/12/04 13:37:22;;;;;;;10.20;5.07;;;;;;;2.06;100.00;99045.63;12165273;19;20027;-83
2023/12/04 13:45:48;;;;;;;11.98;4.95;;;;;;;2.08;100.00;99037.25;12165905;19;20004;-83
2023/12/04 13:49:50;;;;;;;12.57;5.47;;;;;;;2.09;100.00;99034.31;12185944;19;20094;-80
2023/12/04 13:54:08;;;;;;;12.10;5.22;;;;;;;2.08;100.00;99032.63;12182526;19;20003;-83
2023/12/04 13:58:37;;;;;;;10.65;5.20;;;;;;;2.10;100.00;99019.66;12164228;19;20002;-82
2023/12/04 14:02:45;;;;;;;14.00;7.50;;;;;;;2.10;100.00;99008.81;12183593;19;20003;-81
2023/12/04 14:06:48;;;;;;;;;;;;;;;2.01;100.00;98997.34;12161101;19;20011;-82
2023/12/04 14:10:50;;;;;;;16.65;7.40;;;;;;;1.94;100.00;98998.41;12184305;19;19918;-81
2023/12/04 14:14:58;;;;;;;16.27;7.32;;;;;;;1.78;100.00;98996.97;12184911;19;20013;-81
2023/12/04 14:19:00;;;;;;;17.67;8.88;;;;;;;1.62;100.00;99002.88;12214789;19;20077;-80
2023/12/04 14:23:04;;;;;;;20.02;9.20;;;;;;;1.46;100.00;98998.72;12188362;19;20488;-83
2023/12/04 14:27:07;;;;;;;25.45;9.25;;;;;;;1.30;100.00;98992.66;12203082;19;20099;-84
2023/12/04 14:31:10;;;;;;;22.07;9.33;;;;;;;1.30;100.00;98989.97;12183891;19;20481;-81
2023/12/04 14:35:14;;;;;;;23.88;10.63;;;;;;;1.33;100.00;98972.41;12204054;19;20015;-81
2023/12/04 14:39:18;;;;;;;27.52;12.00;;;;;;;1.32;100.00;98962.63;12200966;19;20015;-81
2023/12/04 14:43:21;;;;;;;27.15;12.93;;;;;;;1.31;100.00;98961.78;12171101;19;20058;-80
2023/12/04 14:47:25;;;;;;;26.85;11.35;;;;;;;1.31;100.00;98961.78;12190275;19;20014;-83
2023/12/04 14:51:29;;;;;;;27.60;12.27;;;;;;;1.25;100.00;98957.22;12170587;19;20014;-80
2023/12/04 15:13:32;;;;;;;29.42;11.30;;;;;;;1.28;100.00;98936.94;12190242;19;20026;-80
2023/12/04 15:21:28;;;;;;;38.35;15.93;;;;;;;1.30;100.00;98913.13;12173716;19;20394;-79
2023/12/04 15:25:32;;;;;;;30.35;14.10;;;;;;;1.34;100.00;98906.25;12187735;19;20003;-81
2023/12/04 15:29:35;;;;;;;29.60;13.00;;;;;;;1.37;100.00;98894.97;12189974;19;20115;-80
2023/12/04 15:33:37;;;;;;;27.15;12.23;;;;;;;1.34;100.00;98889.97;12171377;19;20085;-81
2023/12/04 15:37:40;;;;;;;41.78;17.10;;;;;;;1.21;100.00;98885.38;12190917;19;20362;-83
2023/12/04 15:41:42;;;;;;;30.07;12.53;;;;;;;1.16;100.00;98885.22;12191416;19;20015;-82
2023/12/04 15:45:44;;;;;;;24.52;10.30;;;;;;;1.17;100.00;98881.44;12196620;19;20264;-84
2023/12/04 15:49:47;;;;;;;27.42;11.65;;;;;;;1.24;100.00;98868.69;12225622;19;20006;-82
2023/12/04 15:53:50;;;;;;;30.70;11.48;;;;;;;1.28;100.00;98867.22;12213087;19;20023;-84
2023/12/04 15:57:55;;;;;;;25.02;10.73;;;;;;;1.36;100.00;98864.25;12200769;19;20014;-86
2023/12/04 16:01:58;;;;;;;24.98;11.40;;;;;;;1.36;100.00;98856.09;12231496;19;20079;-83
2023/12/04 16:06:06;;;;;;;31.73;11.95;;;;;;;1.38;100.00;98860.50;12209750;19;20347;-81
2023/12/04 16:10:10;;;;;;;27.80;13.00;;;;;;;1.40;100.00;98861.09;12184821;19;20021;-81
2023/12/04 16:14:16;;;;;;;32.63;12.45;;;;;;;1.42;100.00;98850.88;12214437;19;20034;-82
2023/12/04 16:18:19;;;;;;;29.67;11.88;;;;;;;1.48;100.00;98841.88;12223302;19;20445;-82
2023/12/04 16:22:21;;;;;;;31.17;12.23;;;;;;;1.50;100.00;98843.34;12204116;19;20643;-81
2023/12/04 16:26:30;;;;;;;30.55;11.52;;;;;;;1.50;100.00;98840.63;12211079;19;20033;-81
2023/12/04 16:30:33;;;;;;;27.42;11.50;;;;;;;1.50;100.00;98845.22;12172437;19;20013;-82
2023/12/04 16:34:35;;;;;;;40.03;14.10;;;;;;;1.58;100.00;98845.00;12190979;19;20014;-81
2023/12/04 16:38:37;;;;;;;25.80;12.48;;;;;;;1.65;100.00;98837.63;12193681;19;20430;-81
2023/12/04 16:42:40;;;;;;;26.03;10.90;;;;;;;1.66;100.00;98838.47;12177979;19;20476;-80
2023/12/04 16:46:45;;;;;;;33.42;11.50;;;;;;;1.64;100.00;98837.88;12196556;19;20006;-81
2023/12/04 16:50:46;;;;;;;33.42;12.80;;;;;;;1.59;100.00;98833.06;12191482;19;20007;-80
2023/12/04 16:54:51;;;;;;;30.42;12.25;;;;;;;1.60;100.00;98821.16;12166989;19;20795;-80
2023/12/04 16:58:53;;;;;;;28.65;10.85;;;;;;;1.66;100.00;98808.59;12192773;19;20890;-81
2023/12/04 17:02:55;;;;;;;31.73;11.50;;;;;;;1.74;100.00;98808.34;12193960;19;20023;-80
2023/12/04 17:06:57;;;;;;;24.27;11.73;;;;;;;1.75;100.00;98791.81;12169411;19;20073;-80
2023/12/04 17:11:00;;;;;;;31.05;12.40;;;;;;;1.78;100.00;98783.22;12192033;19;20006;-81
2023/12/04 17:15:03;;;;;;;35.38;14.60;;;;;;;1.79;100.00;98776.75;12190027;19;20014;-80
2023/12/04 17:19:06;;;;;;;76.25;27.58;;;;;;;1.86;100.00;98770.44;12173997;19;20078;-81
2023/12/04 17:23:13;;;;;;;37.00;14.75;;;;;;;1.85;100.00;98768.81;12189847;19;20113;-79
2023/12/04 17:27:21;;;;;;;141.18;48.88;;;;;;;1.76;100.00;98762.78;12192045;19;20011;-80
2023/12/04 17:31:23;;;;;;;32.72;14.65;;;;;;;1.74;100.00;98763.00;12170922;19;20002;-81
2023/12/04 17:35:26;;;;;;;28.05;13.40;;;;;;;1.74;100.00;98759.47;12201064;19;20011;-79
2023/12/04 17:39:27;;;;;;;31.05;12.80;;;;;;;1.68;100.00;98760.34;12199142;19;20003;-81
2023/12/04 17:43:32;;;;;;;25.33;11.93;;;;;;;1.66;100.00;98752.38;12190710;19;19998;-81
2023/12/04 17:47:34;;;;;;;28.40;12.85;;;;;;;1.68;100.00;98755.72;12196248;19;20002;-81
2023/12/04 17:51:36;;;;;;;18.47;9.43;;;;;;;1.73;100.00;98753.19;12170809;19;20041;-80
2023/12/04 17:55:38;;;;;;;23.08;9.55;;;;;;;1.82;100.00;98740.19;12188075;19;20039;-81
2023/12/04 17:59:41;;;;;;;26.50;12.93;;;;;;;1.83;100.00;98750.81;12188989;19;20014;-81
2023/12/04 18:03:43;;;;;;;26.65;12.68;;;;;;;1.80;100.00;98745.81;12165462;19;20006;-81
2023/12/04 18:07:46;;;;;;;30.95;13.35;;;;;;;1.90;100.00;98734.47;12187959;19;21491;-81
2023/12/04 18:11:47;;;;;;;32.08;13.07;;;;;;;1.96;100.00;98736.34;12188159;19;20014;-80
2023/12/04 18:15:49;;;;;;;30.90;13.45;;;;;;;2.03;100.00;98733.56;12164273;19;20387;-80
2023/12/04 18:19:53;;;;;;;38.03;15.33;;;;;;;2.09;100.00;98723.69;12185067;19;20018;-80
2023/12/04 18:23:55;;;;;;;28.92;13.35;;;;;;;2.13;100.00;98717.56;12180983;19;20017;-80
2023/12/04 18:28:04;;;;;;;31.25;13.25;;;;;;;2.18;100.00;98715.03;12158520;19;20017;-79
2023/12/04 18:32:09;;;;;;;31.38;14.55;;;;;;;2.18;100.00;98700.59;12188173;19;20010;-80
2023/12/04 18:36:12;;;;;;;28.30;12.55;;;;;;;2.21;100.00;98694.72;12194652;19;20560;-81
2023/12/04 18:40:15;;;;;;;32.83;13.73;;;;;;;2.22;100.00;98686.34;12176577;19;20039;-81
2023/12/04 18:44:17;;;;;;;35.95;13.68;;;;;;;2.26;100.00;98689.44;12194107;19;20349;-81
2023/12/04 18:48:24;;;;;;;32.55;12.95;;;;;;;2.20;100.00;98691.19;12199607;19;19999;-81
2023/12/04 18:52:26;;;;;;;29.77;14.25;;;;;;;2.17;100.00;98680.75;12173092;19;20014;-81
2023/12/04 18:56:29;;;;;;;39.30;16.15;;;;;;;2.19;100.00;98683.25;12192382;19;20026;-81
2023/12/04 19:00:35;;;;;;;34.67;15.38;;;;;;;2.20;100.00;98674.88;12165135;19;20022;-80